CDT,Max TemperatureF,Mean TemperatureF,Min TemperatureF,Max Dew PointF,MeanDew PointF,Min DewpointF,Max Humidity, Mean Humidity, Min Humidity, Max Sea Level PressureIn, Mean Sea Level PressureIn, Min Sea Level PressureIn, Max VisibilityMiles, Mean VisibilityMiles, Min VisibilityMiles, Max Wind SpeedMPH, Mean Wind SpeedMPH, Max Gust SpeedMPH,PrecipitationIn, CloudCover, Events, WindDirDegrees
2013-3-1,26,20,13,18,15,9,84,73,62,30.36,30.27,30.16,10,10,8,17,11,21,T,7,,4
2013-3-2,28,16,3,16,10,-1,88,73,57,30.37,30.30,30.15,10,10,10,12,4,14,0.00,1,,314
2013-3-3,28,22,16,19,15,11,84,70,55,30.19,30.07,29.97,10,9,2,20,12,24,T,4,Snow,133
2013-3-4,28,25,22,23,21,18,92,84,75,30.03,29.93,29.86,10,4,1,23,17,33,0.07,8,Snow,119
2013-3-5,31,27,23,24,22,19,92,81,69,30.30,30.03,29.93,10,5,0,23,11,28,0.19,8,Fog-Snow,325
2013-3-6,25,13,0,19,10,-2,88,78,68,30.44,30.37,30.26,10,8,0,20,9,22,0.00,5,Fog,327
2013-3-7,25,12,-1,17,5,-6,96,85,73,30.42,30.37,30.34,8,4,0,16,7,21,0.00,2,Fog,137
2013-3-8,34,24,14,30,22,12,92,84,75,30.35,30.27,30.09,7,5,3,22,13,28,T,2,Rain,137
2013-3-9,35,34,33,34,32,30,100,95,89,30.08,29.83,29.69,6,2,0,23,14,31,0.61,8,Fog-Rain,143
2013-3-10,34,32,30,32,30,27,96,89,82,29.85,29.77,29.71,10,3,0,30,20,37,0.50,8,Fog-Rain-Snow,4
2013-3-11,30,24,18,27,22,14,92,83,74,29.92,29.77,29.72,10,5,0,25,17,30,0.05,7,Fog-Snow,328
2013-3-12,28,22,16,25,17,12,85,79,73,30.23,30.02,29.89,10,7,1,31,19,38,T,6,Snow,299
2013-3-13,26,19,11,17,12,8,88,76,63,30.45,30.37,30.25,10,9,2,20,10,23,0.00,0,,280
2013-3-14,38,27,15,28,23,12,88,81,74,30.31,30.15,30.06,10,9,4,20,7,24,T,3,,161
2013-3-15,38,34,29,32,30,25,96,86,76,30.04,29.86,29.75,8,4,0,17,7,18,0.00,6,Fog,32
2013-3-16,33,26,18,31,21,12,92,80,68,30.25,30.05,29.82,10,8,1,29,17,36,0.00,5,,340
2013-3-17,31,22,13,24,15,5,78,71,63,30.25,30.10,29.89,10,10,10,22,15,30,T,3,,100
2013-3-18,32,22,12,28,18,5,92,80,68,29.95,29.76,29.64,7,3,0,32,22,39,0.09,8,Fog-Rain-Snow,261
2013-3-19,25,17,8,12,5,1,73,62,50,30.29,30.11,29.90,10,9,6,30,21,36,T,2,,303
2013-3-20,20,14,7,6,3,-1,76,63,49,30.31,30.25,30.18,10,10,9,32,21,38,T,1,,313
2013-3-21,25,14,2,10,5,-2,86,68,50,30.17,30.12,30.03,10,10,10,10,4,12,0.00,0,,347
2013-3-22,30,19,7,18,11,4,83,65,46,30.13,30.11,30.08,10,10,10,7,3,9,0.00,2,,7
2013-3-23,34,25,15,21,17,12,91,71,51,30.17,30.13,30.06,10,10,7,16,7,18,0.00,3,,359
2013-3-24,32,29,25,26,23,20,88,80,72,30.08,29.98,29.91,10,5,2,22,14,25,T,8,Snow,353
2013-3-25,34,29,24,22,20,17,81,71,61,30.26,30.10,29.97,10,10,10,23,17,28,0.06,4,,344
2013-3-26,37,28,19,25,20,15,84,68,52,30.34,30.31,30.27,10,10,10,16,7,20,0.00,1,,309
2013-3-27,38,29,20,26,22,18,92,73,54,30.38,30.35,30.32,10,10,5,8,2,12,0.00,0,,129
2013-3-28,43,34,25,33,26,21,89,77,64,30.37,30.33,30.28,10,10,8,12,6,14,0.00,4,,109
2013-3-29,52,41,29,40,32,24,85,72,59,30.31,30.24,30.12,10,10,9,15,7,18,0.00,2,,147
2013-3-30,55,45,34,46,38,31,93,80,66,30.10,29.94,29.88,10,7,2,20,10,26,0.00,3,,242
2013-3-31,41,33,25,34,29,17,100,77,54,30.12,29.92,29.86,10,5,0,32,19,39,0.00,4,Fog,305